Time;durP1;ratioP1;P1;durP2;ratioP2;P2;SDS_P1;SDS_P2;PMS_P1;PMS_P2;Temp;Humidity;BMP_temperature;BMP_pressure;BME280_temperature;BME280_humidity;BME280_pressure;Samples;Min_cycle;Max_cycle;Signal;HPM_P1;HPM_P2
2023/01/19 00:00:45;;;;;;;18.15;10.30;;;;;;;;;;4887247;29;20504;-80
2023/01/19 00:03:14;;;;;;;14.35;9.23;;;;;;;;;;4902760;28;20522;-80
2023/01/19 00:05:45;;;;;;;17.80;9.68;;;;;;;;;;4884284;28;20052;-79
2023/01/19 00:08:15;;;;;;;14.07;9.48;;;;;;;;;;4869090;29;20680;-79
2023/01/19 00:10:44;;;;;;;14.20;9.73;;;;;;;;;;4868922;29;20056;-79
2023/01/19 00:13:11;;;;;;;16.08;10.45;;;;;;;;;;4884403;28;20086;-79
2023/01/19 00:15:38;;;;;;;13.93;10.05;;;;;;;;;;4868441;29;20048;-79
2023/01/19 00:18:05;;;;;;;15.73;10.30;;;;;;;;;;4867978;29;20064;-80
2023/01/19 00:20:34;;;;;;;14.95;10.35;;;;;;;;;;4883809;29;20063;-79
2023/01/19 00:23:01;;;;;;;15.13;10.95;;;;;;;;;;4965338;28;20056;-79
2023/01/19 00:25:28;;;;;;;12.88;9.48;;;;;;;;;;4877933;29;20067;-80
2023/01/19 00:27:56;;;;;;;15.75;10.25;;;;;;;;;;4887420;29;20071;-80
2023/01/19 00:30:24;;;;;;;16.60;10.40;;;;;;;;;;4902992;29;20134;-80
2023/01/19 00:32:51;;;;;;;15.25;10.30;;;;;;;;;;4888257;29;20074;-80
2023/01/19 00:35:18;;;;;;;17.83;10.40;;;;;;;;;;4902001;29;20048;-80
2023/01/19 00:37:45;;;;;;;15.00;10.57;;;;;;;;;;4886816;29;20056;-79
2023/01/19 00:40:12;;;;;;;15.68;10.32;;;;;;;;;;4902112;29;20058;-79
2023/01/19 00:42:39;;;;;;;19.27;10.93;;;;;;;;;;4967447;28;20123;-80
2023/01/19 00:45:08;;;;;;;17.65;11.18;;;;;;;;;;4883353;29;20066;-79
2023/01/19 00:47:35;;;;;;;16.05;10.63;;;;;;;;;;4867881;29;20059;-79
2023/01/19 00:50:02;;;;;;;16.50;11.68;;;;;;;;;;4868484;29;20071;-80
2023/01/19 00:52:28;;;;;;;19.23;11.77;;;;;;;;;;4868529;29;20056;-79
2023/01/19 00:54:55;;;;;;;18.45;11.05;;;;;;;;;;4871165;29;20044;-78
2023/01/19 00:57:22;;;;;;;19.50;10.77;;;;;;;;;;4885361;29;20075;-79
2023/01/19 00:59:49;;;;;;;18.02;11.02;;;;;;;;;;4885029;29;20063;-79
2023/01/19 01:02:16;;;;;;;18.73;10.77;;;;;;;;;;4885688;29;20419;-79
2023/01/19 01:04:43;;;;;;;15.52;11.00;;;;;;;;;;4885241;29;20127;-79
2023/01/19 01:07:09;;;;;;;15.60;11.50;;;;;;;;;;4900195;29;20427;-79
2023/01/19 01:09:36;;;;;;;18.55;11.65;;;;;;;;;;4916501;29;20057;-79
2023/01/19 01:12:03;;;;;;;18.42;11.07;;;;;;;;;;4887383;29;20085;-79
2023/01/19 01:14:31;;;;;;;16.38;10.85;;;;;;;;;;4892670;29;20063;-79
2023/01/19 01:16:59;;;;;;;18.58;11.05;;;;;;;;;;4888826;29;20090;-79
2023/01/19 01:19:26;;;;;;;17.92;10.65;;;;;;;;;;4886690;29;20470;-78
2023/01/19 01:21:54;;;;;;;16.90;11.32;;;;;;;;;;4884259;29;20052;-79
2023/01/19 01:24:21;;;;;;;15.30;10.95;;;;;;;;;;4885838;28;20077;-79
2023/01/19 01:26:48;;;;;;;14.75;11.02;;;;;;;;;;4965625;28;20090;-78
2023/01/19 01:29:15;;;;;;;14.45;11.52;;;;;;;;;;4885606;29;20059;-79
2023/01/19 01:31:41;;;;;;;17.45;11.73;;;;;;;;;;4900635;29;20055;-79
2023/01/19 01:34:08;;;;;;;19.27;11.73;;;;;;;;;;4885177;29;20056;-79
2023/01/19 01:36:35;;;;;;;18.05;10.80;;;;;;;;;;4882467;29;20444;-80
2023/01/19 01:39:03;;;;;;;17.45;11.23;;;;;;;;;;4867429;29;20480;-80
2023/01/19 01:41:30;;;;;;;19.85;11.32;;;;;;;;;;4898241;29;20052;-79
2023/01/19 01:43:58;;;;;;;15.57;11.57;;;;;;;;;;4867503;29;20052;-80
2023/01/19 01:46:27;;;;;;;17.00;11.57;;;;;;;;;;4867465;29;20048;-80
2023/01/19 01:49:07;;;;;;;19.10;11.55;;;;;;;;;;4866994;29;20063;-80
2023/01/19 01:51:39;;;;;;;17.02;11.45;;;;;;;;;;4896952;29;20059;-80
2023/01/19 01:54:11;;;;;;;15.88;11.20;;;;;;;;;;4881861;28;20082;-81
2023/01/19 01:56:40;;;;;;;16.23;11.00;;;;;;;;;;4900652;29;20044;-80
2023/01/19 01:59:10;;;;;;;18.75;10.75;;;;;;;;;;4897360;29;20059;-80
2023/01/19 02:04:23;;;;;;;14.93;11.05;;;;;;;;;;4916277;28;20039;-79
2023/01/19 02:15:16;;;;;;;15.10;10.57;;;;;;;;;;4912065;29;20135;-81
2023/01/19 02:17:43;;;;;;;15.90;10.45;;;;;;;;;;4966858;28;20508;-80
2023/01/19 02:20:10;;;;;;;18.02;10.38;;;;;;;;;;4884917;29;20056;-80
2023/01/19 02:22:49;;;;;;;15.75;9.82;;;;;;;;;;4883610;28;20052;-80
2023/01/19 02:25:17;;;;;;;16.35;10.65;;;;;;;;;;4875474;29;20520;-80
2023/01/19 02:27:44;;;;;;;16.63;10.98;;;;;;;;;;4867577;29;20060;-80
2023/01/19 02:30:11;;;;;;;16.80;10.82;;;;;;;;;;4866405;29;20052;-79
2023/01/19 02:32:37;;;;;;;16.27;9.90;;;;;;;;;;4866369;28;20516;-79
2023/01/19 02:35:18;;;;;;;18.75;11.52;;;;;;;;;;4800449;29;20065;-79
2023/01/19 02:37:45;;;;;;;18.30;10.43;;;;;;;;;;4824154;29;20061;-79
2023/01/19 02:40:13;;;;;;;14.27;9.88;;;;;;;;;;4823539;29;20112;-79
2023/01/19 02:42:47;;;;;;;16.23;10.32;;;;;;;;;;4823876;29;20114;-80
2023/01/19 02:45:16;;;;;;;16.13;9.88;;;;;;;;;;4824050;29;20061;-80
2023/01/19 02:47:48;;;;;;;14.65;10.15;;;;;;;;;;4809085;29;20051;-80
2023/01/19 02:50:40;;;;;;;13.27;10.32;;;;;;;;;;4809223;29;20077;-80
2023/01/19 02:53:13;;;;;;;16.63;10.00;;;;;;;;;;4831982;29;20562;-80
2023/01/19 02:55:40;;;;;;;15.55;10.73;;;;;;;;;;4856907;29;20118;-79
2023/01/19 02:58:14;;;;;;;13.45;9.95;;;;;;;;;;4826716;29;20152;-79
2023/01/19 03:00:44;;;;;;;15.18;10.43;;;;;;;;;;4812047;29;20076;-79
2023/01/19 03:03:32;;;;;;;15.18;9.60;;;;;;;;;;4856968;29;20450;-79
2023/01/19 03:06:07;;;;;;;15.20;10.30;;;;;;;;;;4826802;29;20486;-79
2023/01/19 03:08:38;;;;;;;15.82;10.05;;;;;;;;;;4812094;29;20055;-79
2023/01/19 03:11:09;;;;;;;14.63;10.48;;;;;;;;;;4857176;29;20502;-79
2023/01/19 03:13:53;;;;;;;14.07;10.05;;;;;;;;;;4875563;28;20524;-79
2023/01/19 03:16:37;;;;;;;17.67;9.88;;;;;;;;;;4899072;29;20504;-79
2023/01/19 03:19:19;;;;;;;19.85;11.50;;;;;;;;;;4901355;28;20056;-79
2023/01/19 03:21:51;;;;;;;16.70;11.13;;;;;;;;;;4886284;29;20783;-79
2023/01/19 03:24:18;;;;;;;14.30;9.70;;;;;;;;;;4885617;29;20052;-78
2023/01/19 03:26:47;;;;;;;14.80;10.50;;;;;;;;;;4885463;29;20051;-78
2023/01/19 03:29:14;;;;;;;15.43;10.38;;;;;;;;;;4885312;29;20062;-78
2023/01/19 03:31:43;;;;;;;16.95;10.55;;;;;;;;;;4884637;29;20063;-78
2023/01/19 03:34:11;;;;;;;16.30;9.98;;;;;;;;;;4965610;28;20063;-78
2023/01/19 03:36:48;;;;;;;17.27;10.95;;;;;;;;;;4966133;28;20056;-80
2023/01/19 03:39:17;;;;;;;17.92;10.88;;;;;;;;;;4900204;29;20048;-80
2023/01/19 03:41:44;;;;;;;14.88;10.88;;;;;;;;;;4966552;28;20134;-80
2023/01/19 03:44:11;;;;;;;19.27;11.75;;;;;;;;;;4881042;28;20727;-79
2023/01/19 03:46:37;;;;;;;18.92;11.57;;;;;;;;;;4866124;29;20052;-79
2023/01/19 03:49:06;;;;;;;15.93;11.30;;;;;;;;;;4868573;29;20591;-79
2023/01/19 03:51:37;;;;;;;22.13;12.85;;;;;;;;;;4947019;28;20064;-80
2023/01/19 03:54:05;;;;;;;19.45;12.55;;;;;;;;;;4892104;28;20064;-79
2023/01/19 03:56:32;;;;;;;18.27;12.18;;;;;;;;;;4882274;29;20048;-80
2023/01/19 03:58:59;;;;;;;18.17;12.10;;;;;;;;;;4883073;29;20059;-79
2023/01/19 04:01:26;;;;;;;15.20;11.13;;;;;;;;;;4973825;28;20051;-79
2023/01/19 04:03:53;;;;;;;17.33;11.07;;;;;;;;;;4879336;28;20109;-80
2023/01/19 04:06:20;;;;;;;15.00;10.77;;;;;;;;;;4869654;29;20509;-79
2023/01/19 04:08:48;;;;;;;14.65;10.38;;;;;;;;;;4867368;29;20059;-78
2023/01/19 04:11:16;;;;;;;17.73;11.43;;;;;;;;;;4898607;29;20056;-79
2023/01/19 04:13:43;;;;;;;17.30;11.20;;;;;;;;;;4959407;28;20518;-79
2023/01/19 04:16:11;;;;;;;16.50;11.07;;;;;;;;;;4982542;28;20143;-80
2023/01/19 04:18:38;;;;;;;13.90;10.02;;;;;;;;;;4901607;29;20056;-80
2023/01/19 04:21:06;;;;;;;17.20;11.25;;;;;;;;;;4963830;28;20052;-80
2023/01/19 04:23:33;;;;;;;18.42;10.77;;;;;;;;;;4901065;29;20054;-80
2023/01/19 04:26:01;;;;;;;15.55;10.73;;;;;;;;;;4885970;29;20401;-79
2023/01/19 04:28:29;;;;;;;15.10;11.05;;;;;;;;;;4916687;29;20066;-80
2023/01/19 04:30:55;;;;;;;13.80;10.70;;;;;;;;;;4885786;29;20059;-80
2023/01/19 04:33:24;;;;;;;14.73;11.52;;;;;;;;;;4889666;29;20059;-78
2023/01/19 04:35:51;;;;;;;17.52;11.05;;;;;;;;;;4903751;29;20051;-79
2023/01/19 04:38:20;;;;;;;15.65;11.02;;;;;;;;;;4904305;29;20061;-79
2023/01/19 04:40:51;;;;;;;18.17;11.98;;;;;;;;;;4905576;29;20062;-79
2023/01/19 04:43:19;;;;;;;17.23;12.30;;;;;;;;;;4922370;28;20043;-78
2023/01/19 04:45:46;;;;;;;19.02;11.82;;;;;;;;;;4865815;29;20054;-79
2023/01/19 04:48:13;;;;;;;17.40;11.82;;;;;;;;;;4866606;29;20048;-79
2023/01/19 04:50:40;;;;;;;17.67;11.65;;;;;;;;;;4866089;29;20078;-79
2023/01/19 04:53:07;;;;;;;15.18;10.35;;;;;;;;;;4877342;28;20055;-79
2023/01/19 04:55:36;;;;;;;14.07;10.65;;;;;;;;;;4900033;29;20130;-78
2023/01/19 04:58:03;;;;;;;15.63;11.13;;;;;;;;;;4886927;29;20058;-79
2023/01/19 05:00:30;;;;;;;18.70;12.05;;;;;;;;;;4887513;29;20056;-79
2023/01/19 05:02:57;;;;;;;17.88;11.85;;;;;;;;;;4887350;28;20082;-79
2023/01/19 05:05:24;;;;;;;19.90;12.15;;;;;;;;;;4901882;28;20331;-78
2023/01/19 05:07:50;;;;;;;20.10;11.95;;;;;;;;;;4901754;28;20499;-78
2023/01/19 05:10:17;;;;;;;17.33;11.88;;;;;;;;;;4885173;29;20063;-78
2023/01/19 05:12:44;;;;;;;20.58;13.27;;;;;;;;;;4885368;28;20052;-78
2023/01/19 05:15:11;;;;;;;19.08;14.82;;;;;;;;;;4902051;29;20060;-78
2023/01/19 05:17:38;;;;;;;22.70;16.98;;;;;;;;;;4885609;29;20110;-78
2023/01/19 05:20:05;;;;;;;23.75;16.90;;;;;;;;;;4982046;28;20052;-78
2023/01/19 05:22:32;;;;;;;27.35;19.13;;;;;;;;;;4885256;29;20150;-78
2023/01/19 05:25:00;;;;;;;42.97;25.55;;;;;;;;;;4885452;29;20052;-78
2023/01/19 05:27:27;;;;;;;45.63;26.15;;;;;;;;;;4885851;29;20139;-78
2023/01/19 05:29:54;;;;;;;45.13;27.70;;;;;;;;;;4886325;29;20047;-78
2023/01/19 05:32:20;;;;;;;31.50;20.67;;;;;;;;;;4881702;29;20519;-78
2023/01/19 05:34:47;;;;;;;32.83;18.30;;;;;;;;;;4867193;29;20056;-78
2023/01/19 05:37:14;;;;;;;26.85;15.10;;;;;;;;;;4867231;29;20054;-78
2023/01/19 05:39:40;;;;;;;40.25;22.80;;;;;;;;;;4867630;29;20424;-78
2023/01/19 05:42:07;;;;;;;41.53;24.52;;;;;;;;;;4868317;29;20052;-79
2023/01/19 05:44:34;;;;;;;28.52;19.08;;;;;;;;;;4867735;29;20135;-78
2023/01/19 05:47:01;;;;;;;24.92;16.27;;;;;;;;;;4867094;29;20088;-78
2023/01/19 05:49:27;;;;;;;20.17;13.98;;;;;;;;;;4881724;29;20079;-78
2023/01/19 05:51:54;;;;;;;17.42;12.80;;;;;;;;;;4880457;29;20052;-78
2023/01/19 05:54:21;;;;;;;19.45;13.95;;;;;;;;;;4880959;28;20056;-78
2023/01/19 05:56:48;;;;;;;16.48;11.68;;;;;;;;;;4881097;29;20060;-79
2023/01/19 05:59:20;;;;;;;17.40;12.23;;;;;;;;;;4881822;29;20058;-80
2023/01/19 06:01:47;;;;;;;17.33;12.53;;;;;;;;;;4968791;28;20047;-79
2023/01/19 06:04:13;;;;;;;19.70;12.18;;;;;;;;;;4885292;29;20114;-78
2023/01/19 06:06:40;;;;;;;18.90;12.63;;;;;;;;;;4884490;29;20056;-78
2023/01/19 06:09:07;;;;;;;18.65;12.43;;;;;;;;;;4901913;29;20523;-78
2023/01/19 06:11:34;;;;;;;19.92;12.13;;;;;;;;;;4888375;29;20043;-80
2023/01/19 06:14:00;;;;;;;16.65;11.38;;;;;;;;;;4889176;29;20055;-80
2023/01/19 06:16:27;;;;;;;23.95;14.02;;;;;;;;;;4885187;29;20051;-79
2023/01/19 06:18:54;;;;;;;19.02;12.80;;;;;;;;;;4869538;29;20578;-80
2023/01/19 06:21:21;;;;;;;19.35;13.18;;;;;;;;;;4888409;29;20064;-80
2023/01/19 06:23:48;;;;;;;21.50;13.63;;;;;;;;;;4919329;29;20070;-78
2023/01/19 06:26:15;;;;;;;19.00;13.10;;;;;;;;;;4902848;28;20052;-78
2023/01/19 06:28:42;;;;;;;18.85;13.13;;;;;;;;;;4884747;29;20120;-80
2023/01/19 06:31:09;;;;;;;18.92;13.27;;;;;;;;;;4884275;29;20056;-80
2023/01/19 06:33:37;;;;;;;22.58;12.43;;;;;;;;;;4884413;28;20053;-79
2023/01/19 06:36:07;;;;;;;20.52;13.40;;;;;;;;;;4870456;29;20040;-80
2023/01/19 06:38:34;;;;;;;20.00;13.27;;;;;;;;;;4871230;29;20636;-80
2023/01/19 06:41:02;;;;;;;18.95;12.32;;;;;;;;;;4949943;29;20099;-80
2023/01/19 06:43:30;;;;;;;17.92;13.70;;;;;;;;;;4874299;29;20067;-79
2023/01/19 06:45:59;;;;;;;21.73;13.13;;;;;;;;;;4881353;29;20089;-79
2023/01/19 06:48:26;;;;;;;20.95;13.30;;;;;;;;;;4888220;29;20051;-80
2023/01/19 06:50:54;;;;;;;20.40;12.60;;;;;;;;;;4886887;29;20094;-78
2023/01/19 06:53:26;;;;;;;19.80;13.02;;;;;;;;;;4886944;29;20058;-78
2023/01/19 06:56:09;;;;;;;15.90;10.53;;;;;;;;;;4901837;29;20095;-78
2023/01/19 06:58:39;;;;;;;21.15;13.00;;;;;;;;;;4883409;29;20083;-78
2023/01/19 07:01:06;;;;;;;19.17;11.77;;;;;;;;;;4880682;29;20053;-78
2023/01/19 07:03:34;;;;;;;18.55;11.88;;;;;;;;;;4912745;28;20060;-79
2023/01/19 07:06:05;;;;;;;17.17;10.45;;;;;;;;;;4885312;28;20369;-79
2023/01/19 07:08:33;;;;;;;14.30;10.52;;;;;;;;;;4885827;29;20074;-78
2023/01/19 07:11:01;;;;;;;14.90;9.73;;;;;;;;;;4885411;29;20052;-78
2023/01/19 07:13:50;;;;;;;17.85;11.00;;;;;;;;;;4892891;29;20055;-80
2023/01/19 07:16:17;;;;;;;13.68;10.25;;;;;;;;;;4885936;29;20074;-78
2023/01/19 07:18:47;;;;;;;15.43;9.43;;;;;;;;;;4887090;28;20082;-79
2023/01/19 07:21:14;;;;;;;15.90;10.35;;;;;;;;;;4888264;29;20080;-80
2023/01/19 07:23:42;;;;;;;17.63;10.60;;;;;;;;;;4915752;29;20074;-80
2023/01/19 07:26:09;;;;;;;21.75;10.82;;;;;;;;;;4903948;29;20078;-79
2023/01/19 07:28:36;;;;;;;15.45;10.73;;;;;;;;;;4887281;29;20055;-78
2023/01/19 07:31:03;;;;;;;15.68;10.48;;;;;;;;;;4909624;28;20504;-79
2023/01/19 07:33:30;;;;;;;15.95;10.63;;;;;;;;;;4895867;29;20051;-83
2023/01/19 07:35:57;;;;;;;14.02;10.07;;;;;;;;;;4903746;29;20068;-80
2023/01/19 07:38:24;;;;;;;17.20;11.10;;;;;;;;;;4936040;28;20060;-79
2023/01/19 07:40:51;;;;;;;19.60;10.98;;;;;;;;;;4886171;29;20064;-81
2023/01/19 07:43:18;;;;;;;15.95;10.75;;;;;;;;;;4870195;29;20059;-80
2023/01/19 07:45:45;;;;;;;15.48;10.00;;;;;;;;;;4901311;29;20139;-80
2023/01/19 07:48:11;;;;;;;16.25;9.93;;;;;;;;;;4903591;29;20404;-80
2023/01/19 07:50:38;;;;;;;17.13;10.13;;;;;;;;;;4904618;29;20077;-82
2023/01/19 07:53:06;;;;;;;14.65;10.40;;;;;;;;;;4888788;29;20138;-81
2023/01/19 07:55:34;;;;;;;14.70;9.75;;;;;;;;;;4969862;28;20062;-82
2023/01/19 07:58:02;;;;;;;17.83;9.23;;;;;;;;;;4969505;28;20218;-82
2023/01/19 08:00:29;;;;;;;16.02;9.68;;;;;;;;;;4885414;29;20056;-81
2023/01/19 08:02:58;;;;;;;15.38;10.10;;;;;;;;;;4898529;29;20094;-82
2023/01/19 08:05:28;;;;;;;12.60;8.88;;;;;;;;;;4969618;28;20166;-82
2023/01/19 08:07:59;;;;;;;13.13;9.13;;;;;;;;;;4888562;29;20043;-82
2023/01/19 08:10:27;;;;;;;16.00;9.13;;;;;;;;;;4969205;28;20070;-81
2023/01/19 08:12:54;;;;;;;16.05;11.00;;;;;;;;;;4884297;28;20134;-81
2023/01/19 08:15:23;;;;;;;15.75;10.15;;;;;;;;;;4869395;29;20066;-82
2023/01/19 08:18:10;;;;;;;15.68;11.10;;;;;;;;;;4869696;29;20048;-81
2023/01/19 08:20:37;;;;;;;17.83;10.55;;;;;;;;;;4870316;29;20056;-83
2023/01/19 08:23:04;;;;;;;20.10;11.45;;;;;;;;;;4869935;29;20063;-82
2023/01/19 08:25:32;;;;;;;15.15;11.50;;;;;;;;;;4869734;29;20083;-80
2023/01/19 08:27:59;;;;;;;14.40;10.40;;;;;;;;;;4882731;29;20049;-79
2023/01/19 08:30:26;;;;;;;17.77;10.85;;;;;;;;;;4882825;29;20066;-82
2023/01/19 08:32:56;;;;;;;15.02;10.27;;;;;;;;;;4886335;28;20052;-83
2023/01/19 08:35:24;;;;;;;17.13;11.45;;;;;;;;;;4883347;29;20365;-80
2023/01/19 08:37:50;;;;;;;16.83;8.25;;;;;;;;;;4983845;28;20425;-81
2023/01/19 08:40:18;;;;;;;11.93;8.13;;;;;;;;;;4883454;29;20052;-77
2023/01/19 08:42:45;;;;;;;11.40;7.60;;;;;;;;;;4899080;29;20086;-77
2023/01/19 08:45:12;;;;;;;13.32;7.10;;;;;;;;;;4904631;29;20101;-80
2023/01/19 08:47:39;;;;;;;12.95;7.30;;;;;;;;;;4889671;29;20058;-82
2023/01/19 08:50:06;;;;;;;10.23;6.60;;;;;;;;;;4889937;29;20063;-82
2023/01/19 08:52:33;;;;;;;12.40;7.50;;;;;;;;;;4889878;29;20166;-82
2023/01/19 08:55:00;;;;;;;11.90;6.45;;;;;;;;;;4904635;29;20058;-81
2023/01/19 08:57:27;;;;;;;9.35;5.93;;;;;;;;;;4887347;29;20082;-82
2023/01/19 08:59:54;;;;;;;9.98;6.47;;;;;;;;;;4913009;28;20063;-82
2023/01/19 09:02:21;;;;;;;14.20;6.78;;;;;;;;;;4931581;29;20067;-82
2023/01/19 09:04:48;;;;;;;8.15;5.88;;;;;;;;;;4900320;28;20051;-83
2023/01/19 09:07:16;;;;;;;8.18;6.03;;;;;;;;;;4916209;29;20107;-81
2023/01/19 09:09:43;;;;;;;10.93;6.68;;;;;;;;;;4899890;29;20111;-81
2023/01/19 09:12:09;;;;;;;9.18;5.53;;;;;;;;;;4899574;29;20075;-81
2023/01/19 09:14:37;;;;;;;9.57;5.90;;;;;;;;;;4890438;28;20047;-81
2023/01/19 09:17:05;;;;;;;9.50;6.05;;;;;;;;;;4887905;28;20051;-81
2023/01/19 09:19:32;;;;;;;9.02;5.95;;;;;;;;;;4900691;29;20102;-81
2023/01/19 09:22:00;;;;;;;9.13;5.82;;;;;;;;;;4880126;29;20051;-80
2023/01/19 09:24:27;;;;;;;9.57;6.00;;;;;;;;;;4894593;28;20050;-82
2023/01/19 09:26:54;;;;;;;7.13;5.10;;;;;;;;;;4882066;29;20052;-82
2023/01/19 09:29:21;;;;;;;6.47;5.18;;;;;;;;;;4895343;29;20551;-78
2023/01/19 09:31:48;;;;;;;9.38;6.43;;;;;;;;;;4879327;29;20054;-72
2023/01/19 09:34:19;;;;;;;8.48;5.47;;;;;;;;;;4886426;28;20145;-80
2023/01/19 09:36:46;;;;;;;8.50;5.78;;;;;;;;;;4907818;29;20094;-75
2023/01/19 09:39:13;;;;;;;9.85;5.95;;;;;;;;;;4875491;29;20058;-79
2023/01/19 09:41:41;;;;;;;7.60;5.47;;;;;;;;;;4880515;28;20085;-80
2023/01/19 09:44:16;;;;;;;7.40;5.32;;;;;;;;;;4908500;28;20062;-80
2023/01/19 09:46:43;;;;;;;7.75;5.35;;;;;;;;;;4874418;29;20509;-79
2023/01/19 09:49:13;;;;;;;8.07;5.53;;;;;;;;;;4880249;29;20055;-80
2023/01/19 09:51:44;;;;;;;11.95;5.78;;;;;;;;;;4879213;29;20055;-80
2023/01/19 09:54:15;;;;;;;7.35;5.45;;;;;;;;;;4896188;28;20059;-79
2023/01/19 09:56:42;;;;;;;7.07;4.78;;;;;;;;;;4898391;28;20067;-81
2023/01/19 09:59:28;;;;;;;7.95;5.13;;;;;;;;;;4890181;29;20052;-80
2023/01/19 10:02:24;;;;;;;9.55;5.20;;;;;;;;;;4899537;29;20056;-80
2023/01/19 10:05:28;;;;;;;6.68;4.82;;;;;;;;;;4902347;28;20135;-80
2023/01/19 10:08:43;;;;;;;7.47;4.90;;;;;;;;;;4900936;28;20163;-76
2023/01/19 10:11:24;;;;;;;7.65;5.00;;;;;;;;;;4912984;29;20048;-76
2023/01/19 10:13:54;;;;;;;11.27;5.53;;;;;;;;;;4892478;29;20060;-77
2023/01/19 10:16:29;;;;;;;10.15;6.15;;;;;;;;;;4880854;29;20468;-78
2023/01/19 10:19:21;;;;;;;9.43;6.00;;;;;;;;;;4908091;29;20044;-81
2023/01/19 10:21:48;;;;;;;5.85;4.60;;;;;;;;;;4889431;28;20143;-81
2023/01/19 10:24:26;;;;;;;7.45;5.22;;;;;;;;;;4877490;28;20053;-82
2023/01/19 10:26:55;;;;;;;11.30;5.93;;;;;;;;;;4892197;28;20062;-82
2023/01/19 10:29:25;;;;;;;9.38;5.30;;;;;;;;;;4885384;29;20082;-81
2023/01/19 10:32:08;;;;;;;7.50;5.40;;;;;;;;;;4909565;29;20090;-82
2023/01/19 10:34:35;;;;;;;11.45;6.00;;;;;;;;;;4897949;28;20052;-81
2023/01/19 10:37:36;;;;;;;6.22;5.43;;;;;;;;;;4878681;29;20051;-81
2023/01/19 10:40:09;;;;;;;7.78;4.70;;;;;;;;;;4906410;28;20150;-81
2023/01/19 10:42:39;;;;;;;9.60;5.25;;;;;;;;;;4909140;29;20066;-82
2023/01/19 10:45:19;;;;;;;9.77;5.60;;;;;;;;;;4894599;29;20063;-81
2023/01/19 10:47:47;;;;;;;7.38;5.47;;;;;;;;;;4893270;29;20123;-81
2023/01/19 10:50:22;;;;;;;8.13;4.93;;;;;;;;;;4887249;29;20060;-81
2023/01/19 10:52:51;;;;;;;7.93;5.20;;;;;;;;;;4910254;28;20471;-81
2023/01/19 10:55:38;;;;;;;8.57;5.13;;;;;;;;;;4877647;29;20130;-81
2023/01/19 10:58:07;;;;;;;7.50;4.97;;;;;;;;;;4886630;29;20131;-81
2023/01/19 11:00:37;;;;;;;8.40;5.35;;;;;;;;;;4886575;29;20492;-82
2023/01/19 11:03:23;;;;;;;5.85;4.93;;;;;;;;;;4913235;28;20563;-81
2023/01/19 11:05:50;;;;;;;8.93;5.07;;;;;;;;;;4884829;29;20059;-81
2023/01/19 11:08:35;;;;;;;13.23;6.63;;;;;;;;;;4897161;29;20054;-81
2023/01/19 11:11:07;;;;;;;13.00;6.55;;;;;;;;;;4901097;28;20044;-82
2023/01/19 11:13:34;;;;;;;10.43;5.30;;;;;;;;;;4893756;28;20051;-81
2023/01/19 11:16:24;;;;;;;11.30;5.78;;;;;;;;;;4898594;29;20083;-82
2023/01/19 11:18:52;;;;;;;14.75;7.07;;;;;;;;;;4893416;29;20489;-82
2023/01/19 11:21:21;;;;;;;15.50;8.20;;;;;;;;;;4887529;29;20058;-81
2023/01/19 11:24:01;;;;;;;12.98;6.90;;;;;;;;;;4892224;28;20083;-81
2023/01/19 11:26:56;;;;;;;13.82;6.88;;;;;;;;;;4880747;29;20079;-80
2023/01/19 11:29:24;;;;;;;9.57;5.15;;;;;;;;;;4914873;28;20087;-81
2023/01/19 11:31:52;;;;;;;10.82;5.35;;;;;;;;;;4891615;29;20059;-82
2023/01/19 11:34:33;;;;;;;10.45;4.85;;;;;;;;;;4891127;28;20043;-81
2023/01/19 11:37:08;;;;;;;8.70;4.93;;;;;;;;;;4903603;29;20393;-80
2023/01/19 11:39:50;;;;;;;13.05;6.03;;;;;;;;;;4892500;29;20071;-81
2023/01/19 11:42:18;;;;;;;8.52;4.65;;;;;;;;;;4899569;29;20122;-80
2023/01/19 11:45:10;;;;;;;8.82;4.57;;;;;;;;;;4890415;28;20048;-82
2023/01/19 11:47:39;;;;;;;9.88;5.30;;;;;;;;;;4895347;29;20108;-83
2023/01/19 11:50:12;;;;;;;10.70;5.97;;;;;;;;;;4907149;29;20074;-82
2023/01/19 11:52:57;;;;;;;6.35;4.10;;;;;;;;;;4920108;28;20055;-82
2023/01/19 11:55:32;;;;;;;7.07;4.35;;;;;;;;;;4926597;29;20568;-82
2023/01/19 11:57:59;;;;;;;8.73;4.78;;;;;;;;;;4915553;28;20056;-80
2023/01/19 12:00:40;;;;;;;10.25;4.70;;;;;;;;;;4881032;29;20063;-80
2023/01/19 12:03:30;;;;;;;10.43;4.88;;;;;;;;;;4920224;28;20056;-82
2023/01/19 12:06:06;;;;;;;6.30;4.50;;;;;;;;;;4909137;29;20626;-80
2023/01/19 12:08:41;;;;;;;9.05;4.85;;;;;;;;;;4887424;29;20058;-81
2023/01/19 12:11:09;;;;;;;6.93;4.10;;;;;;;;;;4940598;28;20054;-80
2023/01/19 12:13:37;;;;;;;8.70;4.88;;;;;;;;;;4879621;28;20147;-80
2023/01/19 12:16:16;;;;;;;7.53;4.95;;;;;;;;;;4879975;29;20056;-80
2023/01/19 12:18:58;;;;;;;8.77;4.25;;;;;;;;;;4881112;29;20101;-81
2023/01/19 12:21:25;;;;;;;6.88;4.50;;;;;;;;;;4960051;28;20456;-81
2023/01/19 12:24:22;;;;;;;6.68;4.95;;;;;;;;;;4880384;28;20079;-81
2023/01/19 12:26:59;;;;;;;9.05;5.30;;;;;;;;;;4911128;29;20048;-81
2023/01/19 12:29:28;;;;;;;7.70;5.55;;;;;;;;;;4899053;29;20055;-80
2023/01/19 12:32:15;;;;;;;7.80;5.60;;;;;;;;;;4883302;29;20075;-81
2023/01/19 12:34:50;;;;;;;9.30;5.15;;;;;;;;;;4905062;28;20056;-81
2023/01/19 12:37:39;;;;;;;14.38;6.65;;;;;;;;;;4886270;29;20563;-77
2023/01/19 12:40:27;;;;;;;12.00;6.30;;;;;;;;;;4885588;29;20055;-76
2023/01/19 12:43:03;;;;;;;7.15;4.15;;;;;;;;;;4915000;28;20198;-76
2023/01/19 12:45:33;;;;;;;11.60;5.32;;;;;;;;;;4879112;29;20531;-78
2023/01/19 12:48:01;;;;;;;8.02;4.90;;;;;;;;;;4954148;28;20481;-82
2023/01/19 12:50:36;;;;;;;4.25;3.65;;;;;;;;;;4877427;29;20143;-83
2023/01/19 12:53:14;;;;;;;4.55;3.58;;;;;;;;;;4909034;28;20416;-81
2023/01/19 12:55:45;;;;;;;5.88;4.00;;;;;;;;;;4895678;28;20143;-82
2023/01/19 12:58:17;;;;;;;6.75;3.97;;;;;;;;;;4880277;29;20047;-82
2023/01/19 13:00:46;;;;;;;6.30;4.05;;;;;;;;;;4899032;29;20052;-83
2023/01/19 13:03:15;;;;;;;5.25;4.25;;;;;;;;;;4886389;28;20091;-82
2023/01/19 13:05:42;;;;;;;8.25;4.00;;;;;;;;;;4911636;29;20067;-83
2023/01/19 13:08:10;;;;;;;7.05;4.78;;;;;;;;;;4923534;28;20054;-83
2023/01/19 13:11:01;;;;;;;6.82;5.38;;;;;;;;;;4905289;29;20066;-82
2023/01/19 13:13:32;;;;;;;11.60;6.38;;;;;;;;;;4908934;28;20050;-82
2023/01/19 13:16:16;;;;;;;8.48;6.22;;;;;;;;;;4894354;29;20440;-82
2023/01/19 13:18:51;;;;;;;11.43;6.63;;;;;;;;;;4908601;29;20050;-81
2023/01/19 13:21:29;;;;;;;9.13;6.15;;;;;;;;;;4923513;28;20052;-81
2023/01/19 13:23:58;;;;;;;8.00;5.65;;;;;;;;;;4887208;28;20082;-80
2023/01/19 13:26:31;;;;;;;9.45;7.30;;;;;;;;;;4889072;29;20282;-81
2023/01/19 13:29:02;;;;;;;;;;;;;;;;;;4885091;29;20136;-80
2023/01/19 13:31:36;;;;;;;11.25;6.55;;;;;;;;;;4900334;29;20018;-79
2023/01/19 13:34:04;;;;;;;9.75;6.55;;;;;;;;;;4875629;29;20060;-80
2023/01/19 13:36:32;;;;;;;8.52;6.38;;;;;;;;;;4973632;28;20146;-79
2023/01/19 13:39:03;;;;;;;6.82;5.50;;;;;;;;;;4893633;28;20152;-80
2023/01/19 13:41:31;;;;;;;7.93;6.13;;;;;;;;;;4896148;29;20048;-80
2023/01/19 13:44:26;;;;;;;11.52;6.03;;;;;;;;;;4907254;29;20047;-81
2023/01/19 13:46:53;;;;;;;7.05;5.53;;;;;;;;;;4894545;29;20517;-84
2023/01/19 13:49:32;;;;;;;7.93;5.40;;;;;;;;;;4889548;29;20135;-81
2023/01/19 13:52:03;;;;;;;7.20;5.18;;;;;;;;;;4875591;29;20052;-79
2023/01/19 13:54:30;;;;;;;9.93;6.03;;;;;;;;;;4908627;28;20058;-80
2023/01/19 13:56:56;;;;;;;14.02;6.68;;;;;;;;;;4879494;29;20134;-79
2023/01/19 13:59:23;;;;;;;16.38;7.55;;;;;;;;;;4904524;28;20067;-79
2023/01/19 14:01:52;;;;;;;9.88;5.93;;;;;;;;;;4880808;29;20145;-79
2023/01/19 14:04:31;;;;;;;7.80;5.72;;;;;;;;;;4878282;28;20469;-79
2023/01/19 14:07:12;;;;;;;10.05;5.82;;;;;;;;;;4884140;29;20083;-79
2023/01/19 14:09:39;;;;;;;10.73;6.35;;;;;;;;;;4882719;29;20110;-80
2023/01/19 14:12:14;;;;;;;8.93;5.95;;;;;;;;;;4887875;29;20284;-81
2023/01/19 14:14:42;;;;;;;7.47;5.30;;;;;;;;;;4900300;28;20064;-81
2023/01/19 14:17:27;;;;;;;7.55;6.03;;;;;;;;;;4886789;29;20087;-81
2023/01/19 14:19:56;;;;;;;9.90;6.20;;;;;;;;;;4948096;28;20066;-81
2023/01/19 14:22:44;;;;;;;8.15;5.63;;;;;;;;;;4887177;29;20066;-80
2023/01/19 14:25:21;;;;;;;9.13;6.05;;;;;;;;;;4907023;29;20501;-81
2023/01/19 14:27:47;;;;;;;11.48;6.32;;;;;;;;;;4901433;29;20497;-82
2023/01/19 14:30:21;;;;;;;9.13;5.47;;;;;;;;;;4916514;29;20055;-82
2023/01/19 14:32:48;;;;;;;8.48;5.97;;;;;;;;;;4892349;28;20057;-82
2023/01/19 14:35:23;;;;;;;10.98;6.25;;;;;;;;;;4904675;29;20421;-81
2023/01/19 14:37:50;;;;;;;6.90;5.03;;;;;;;;;;4885514;29;20056;-80
2023/01/19 14:40:19;;;;;;;10.38;6.55;;;;;;;;;;4890527;29;20115;-80
2023/01/19 14:43:13;;;;;;;8.35;6.53;;;;;;;;;;4888058;28;20059;-81
2023/01/19 14:45:40;;;;;;;9.85;5.90;;;;;;;;;;4906616;28;21136;-85
2023/01/19 14:48:19;;;;;;;9.45;6.13;;;;;;;;;;4888014;29;20166;-80
2023/01/19 14:50:47;;;;;;;10.90;6.32;;;;;;;;;;4893506;29;20150;-84
2023/01/19 14:53:28;;;;;;;9.03;5.87;;;;;;;;;;4897792;29;20055;-83
2023/01/19 14:55:59;;;;;;;9.32;5.80;;;;;;;;;;4898842;29;20346;-84
2023/01/19 14:58:28;;;;;;;7.82;6.53;;;;;;;;;;4905388;29;20048;-84
2023/01/19 15:00:55;;;;;;;9.38;6.13;;;;;;;;;;4908785;28;20047;-82